createdAt,value
2023-03-06T00:02:48.240Z,6.68
2023-03-06T00:05:51.036Z,6.53
2023-03-06T00:08:54.435Z,7.20
2023-03-06T00:11:57.222Z,6.70
2023-03-06T00:14:59.937Z,7.25
2023-03-06T00:18:06.514Z,5.85
2023-03-06T00:21:09.422Z,5.90
2023-03-06T00:24:12.093Z,6.68
2023-03-06T00:27:15.214Z,6.55
2023-03-06T00:30:21.193Z,6.10
2023-03-06T00:33:24.040Z,6.72
2023-03-06T00:36:29.006Z,6.43
2023-03-06T00:39:31.878Z,8.07
2023-03-06T00:42:34.717Z,7.53
2023-03-06T00:45:37.708Z,6.38
2023-03-06T00:48:40.601Z,6.85
2023-03-06T00:51:43.359Z,6.60
2023-03-06T00:54:46.049Z,5.85
2023-03-06T00:57:48.987Z,7.28
2023-03-06T01:00:51.815Z,8.38
2023-03-06T01:03:54.719Z,7.25
2023-03-06T01:06:57.596Z,7.07
2023-03-06T01:10:00.572Z,7.53
2023-03-06T01:13:03.398Z,6.93
2023-03-06T01:16:12.621Z,7.18
2023-03-06T01:19:16.892Z,7.00
2023-03-06T01:22:20.815Z,6.70
2023-03-06T01:25:25.185Z,6.57
2023-03-06T01:28:27.915Z,8.30
2023-03-06T01:31:31.644Z,7.10
2023-03-06T01:34:34.496Z,6.65
2023-03-06T01:37:38.218Z,6.57
2023-03-06T01:40:41.446Z,7.47
2023-03-06T01:43:46.479Z,7.28
2023-03-06T01:46:49.323Z,6.82
2023-03-06T01:49:52.351Z,7.72
2023-03-06T01:52:59.908Z,7.83
2023-03-06T01:56:02.911Z,7.95
2023-03-06T01:59:07.644Z,6.88
2023-03-06T02:02:12.886Z,7.95
2023-03-06T02:05:15.849Z,8.77
2023-03-06T02:08:21.857Z,7.97
2023-03-06T02:11:25.151Z,11.20
2023-03-06T02:14:29.390Z,11.07
2023-03-06T02:17:34.967Z,11.32
2023-03-06T02:20:44.612Z,9.95
2023-03-06T02:23:56.236Z,9.33
2023-03-06T02:27:01.310Z,9.77
2023-03-06T02:30:11.105Z,9.13
2023-03-06T02:33:16.318Z,8.50
2023-03-06T02:36:19.064Z,7.93
2023-03-06T02:39:28.358Z,7.90
2023-03-06T02:42:31.493Z,7.57
2023-03-06T02:45:36.286Z,7.13
2023-03-06T02:48:39.190Z,6.78
2023-03-06T02:51:42.050Z,7.47
2023-03-06T02:54:44.886Z,8.00
2023-03-06T02:57:47.896Z,7.78
2023-03-06T03:00:51.050Z,7.35
2023-03-06T03:03:55.277Z,7.00
2023-03-06T03:06:58.248Z,8.30
2023-03-06T03:10:01.560Z,8.50
2023-03-06T03:13:05.193Z,10.13
2023-03-06T03:16:16.420Z,9.98
2023-03-06T03:19:20.321Z,9.13
2023-03-06T03:22:23.197Z,10.05
2023-03-06T03:25:26.580Z,10.27
2023-03-06T03:28:32.098Z,9.18
2023-03-06T03:31:34.880Z,8.57
2023-03-06T03:34:38.649Z,8.35
2023-03-06T03:37:41.999Z,7.75
2023-03-06T03:40:45.229Z,7.87
2023-03-06T03:43:48.640Z,7.88
2023-03-06T03:46:51.527Z,7.30
2023-03-06T03:49:57.605Z,6.43
2023-03-06T03:53:01.023Z,6.53
2023-03-06T03:56:04.686Z,7.23
2023-03-06T03:59:10.575Z,8.60
2023-03-06T04:02:21.968Z,8.35
2023-03-06T04:05:42.569Z,12.02
2023-03-06T04:08:47.958Z,10.52
2023-03-06T04:11:51.083Z,9.87
2023-03-06T04:14:54.575Z,8.10
2023-03-06T04:17:58.174Z,8.20
2023-03-06T04:21:03.532Z,8.43
2023-03-06T04:24:07.340Z,9.30
2023-03-06T04:27:10.844Z,10.30
2023-03-06T04:30:13.859Z,9.32
2023-03-06T04:33:17.744Z,7.75
2023-03-06T04:36:32.671Z,8.73
2023-03-06T04:39:40.885Z,7.15
2023-03-06T04:42:43.647Z,8.07
2023-03-06T04:45:46.511Z,8.25
2023-03-06T04:48:49.355Z,7.88
2023-03-06T04:51:52.092Z,8.75
2023-03-06T04:54:54.789Z,9.25
2023-03-06T04:57:57.654Z,9.70
2023-03-06T05:01:00.446Z,9.98
2023-03-06T05:04:03.399Z,8.63
2023-03-06T05:07:06.126Z,9.40
2023-03-06T05:10:12.959Z,8.90
2023-03-06T05:13:15.797Z,8.27
2023-03-06T05:16:18.898Z,7.93
2023-03-06T05:19:21.756Z,10.43
2023-03-06T05:22:24.762Z,10.45
2023-03-06T05:25:27.483Z,10.93
2023-03-06T05:28:30.343Z,12.20
2023-03-06T05:31:33.268Z,11.07
2023-03-06T05:34:36.009Z,11.73
2023-03-06T05:37:38.791Z,11.00
2023-03-06T05:40:44.005Z,12.48
2023-03-06T05:43:46.764Z,11.70
2023-03-06T05:46:50.896Z,10.98
2023-03-06T05:49:53.605Z,9.73
2023-03-06T05:52:56.395Z,11.38
2023-03-06T05:56:02.023Z,10.88
2023-03-06T05:59:04.870Z,10.33
2023-03-06T06:02:08.174Z,11.52
2023-03-06T06:05:13.066Z,11.13
2023-03-06T06:08:16.269Z,10.93
2023-03-06T06:11:20.898Z,10.00
2023-03-06T06:14:23.695Z,10.47
2023-03-06T06:17:26.493Z,9.55
2023-03-06T06:20:29.177Z,11.00
2023-03-06T06:23:31.998Z,9.27
2023-03-06T06:26:34.945Z,8.30
2023-03-06T06:29:37.993Z,10.07
2023-03-06T06:32:40.768Z,12.23
2023-03-06T06:35:43.553Z,11.75
2023-03-06T06:38:46.331Z,11.07
2023-03-06T06:42:05.665Z,14.25
2023-03-06T06:45:13.167Z,14.80
2023-03-06T06:48:17.805Z,15.40
2023-03-06T06:51:22.762Z,18.23
2023-03-06T06:54:25.761Z,20.58
2023-03-06T06:57:28.510Z,22.13
2023-03-06T07:00:31.277Z,22.80
2023-03-06T07:03:34.650Z,21.90
2023-03-06T07:06:37.502Z,20.20
2023-03-06T07:09:40.497Z,19.75
2023-03-06T07:12:43.793Z,13.93
2023-03-06T07:15:46.738Z,14.00
2023-03-06T07:18:49.532Z,13.55
2023-03-06T07:21:52.352Z,13.38
2023-03-06T07:24:55.126Z,17.10
2023-03-06T07:27:57.961Z,17.17
2023-03-06T07:31:00.786Z,17.40
2023-03-06T07:34:05.008Z,16.08
2023-03-06T07:37:07.938Z,13.82
2023-03-06T07:40:12.491Z,13.55
2023-03-06T07:43:19.484Z,13.68
2023-03-06T07:46:29.907Z,14.20
2023-03-06T07:49:35.067Z,10.85
2023-03-06T07:52:38.279Z,10.93
2023-03-06T07:55:41.709Z,10.85
2023-03-06T07:58:45.933Z,9.43
2023-03-06T08:01:48.769Z,9.80
2023-03-06T08:04:53.504Z,9.65
2023-03-06T08:07:56.279Z,10.40
2023-03-06T08:10:58.954Z,10.07
2023-03-06T08:14:01.825Z,9.82
2023-03-06T08:17:04.762Z,8.53
2023-03-06T08:20:08.642Z,9.43
2023-03-06T08:23:12.117Z,10.38
2023-03-06T08:26:24.230Z,10.32
2023-03-06T08:29:28.171Z,10.55
2023-03-06T08:32:31.014Z,9.57
2023-03-06T08:35:33.894Z,8.85
2023-03-06T08:38:36.804Z,8.57
2023-03-06T08:41:40.552Z,9.32
2023-03-06T08:44:43.408Z,8.68
2023-03-06T08:47:46.185Z,8.97
2023-03-06T08:50:49.361Z,9.30
2023-03-06T08:53:52.902Z,8.38
2023-03-06T08:56:55.684Z,8.23
2023-03-06T08:59:58.726Z,8.48
2023-03-06T09:03:01.466Z,8.70
2023-03-06T09:06:04.315Z,8.70
2023-03-06T09:09:08.317Z,9.68
2023-03-06T09:12:11.169Z,8.70
2023-03-06T09:15:14.336Z,8.43
2023-03-06T09:18:17.058Z,8.03
2023-03-06T09:21:23.259Z,9.20
2023-03-06T09:24:26.127Z,8.05
2023-03-06T09:27:29.069Z,9.27
2023-03-06T09:30:31.963Z,8.02
2023-03-06T09:33:34.887Z,7.87
2023-03-06T09:36:54.986Z,7.68
2023-03-06T09:39:59.309Z,6.38
2023-03-06T09:43:02.187Z,6.65
2023-03-06T09:46:24.568Z,7.07
2023-03-06T09:49:49.037Z,6.13
2023-03-06T09:53:16.454Z,7.13
2023-03-06T09:56:30.244Z,6.57
2023-03-06T09:59:33.630Z,6.70
2023-03-06T10:02:44.749Z,6.85
2023-03-06T10:05:55.369Z,6.77
2023-03-06T10:09:15.329Z,6.60
2023-03-06T10:12:28.643Z,7.07
2023-03-06T10:15:38.713Z,7.18
2023-03-06T10:18:41.682Z,6.93
2023-03-06T10:21:55.705Z,7.23
2023-03-06T10:25:16.411Z,7.00
2023-03-06T10:28:25.233Z,7.68
2023-03-06T10:31:28.894Z,6.43
2023-03-06T10:34:37.685Z,7.60
2023-03-06T10:37:40.354Z,8.03
2023-03-06T10:41:01.021Z,8.85
2023-03-06T10:44:03.918Z,8.30
2023-03-06T10:47:29.518Z,8.35
2023-03-06T10:50:32.392Z,7.90
2023-03-06T10:53:35.272Z,8.30
2023-03-06T10:56:40.760Z,8.20
2023-03-06T10:59:58.371Z,8.10
2023-03-06T11:03:16.372Z,8.43
2023-03-06T11:06:37.064Z,7.72
2023-03-06T11:09:40.273Z,8.07
2023-03-06T11:12:44.316Z,8.02
2023-03-06T11:16:25.646Z,9.25
2023-03-06T11:19:29.866Z,8.50
2023-03-06T11:22:33.033Z,9.00
2023-03-06T11:25:50.538Z,8.70
2023-03-06T11:29:17.796Z,8.23
2023-03-06T11:32:24.294Z,9.05
2023-03-06T11:35:35.902Z,7.30
2023-03-06T11:38:50.543Z,8.98
2023-03-06T11:42:20.799Z,8.30
2023-03-06T11:45:45.079Z,9.40
2023-03-06T11:49:26.323Z,9.38
2023-03-06T11:52:44.590Z,7.95
2023-03-06T11:56:02.360Z,8.18
2023-03-06T11:59:42.299Z,8.67
2023-03-06T12:03:04.315Z,9.23
2023-03-06T12:06:09.713Z,8.80
2023-03-06T12:09:12.572Z,8.23
2023-03-06T12:12:27.516Z,8.60
2023-03-06T12:15:51.238Z,9.23
2023-03-06T12:18:56.735Z,7.82
2023-03-06T12:22:21.399Z,7.00
2023-03-06T12:25:32.907Z,8.23
2023-03-06T12:28:54.658Z,9.38
2023-03-06T12:32:14.983Z,8.00
2023-03-06T12:35:23.550Z,8.23
2023-03-06T12:38:49.634Z,9.38
2023-03-06T12:42:23.492Z,8.57
2023-03-06T12:45:33.266Z,10.25
2023-03-06T12:48:39.068Z,10.53
2023-03-06T12:51:44.612Z,10.35
2023-03-06T12:54:47.695Z,10.00
2023-03-06T12:57:50.850Z,8.88
2023-03-06T13:01:04.186Z,9.23
2023-03-06T13:04:20.169Z,8.00
2023-03-06T13:07:29.412Z,8.15
2023-03-06T13:10:34.776Z,8.55
2023-03-06T13:13:48.488Z,7.60
2023-03-06T13:16:51.724Z,7.85
2023-03-06T13:20:13.300Z,7.97
2023-03-06T13:23:42.745Z,7.63
2023-03-06T13:26:45.438Z,8.00
2023-03-06T13:29:50.972Z,8.82
2023-03-06T13:32:55.023Z,8.70
2023-03-06T13:35:59.324Z,8.57
2023-03-06T13:39:13.886Z,8.55
2023-03-06T13:42:26.632Z,7.43
2023-03-06T13:45:46.072Z,8.23
2023-03-06T13:49:08.844Z,8.25
2023-03-06T13:52:55.924Z,10.00
2023-03-06T13:56:28.914Z,8.80
2023-03-06T14:00:16.662Z,8.77
2023-03-06T14:03:40.596Z,8.77
2023-03-06T14:07:07.329Z,9.75
2023-03-06T14:10:24.928Z,9.30
2023-03-06T14:13:50.774Z,9.07
2023-03-06T14:16:53.927Z,9.48
2023-03-06T14:20:01.768Z,9.90
2023-03-06T14:23:27.914Z,9.85
2023-03-06T14:26:40.931Z,9.30
2023-03-06T14:29:44.654Z,10.65
2023-03-06T14:32:50.083Z,8.98
2023-03-06T14:36:00.759Z,8.30
2023-03-06T14:39:29.718Z,11.45
2023-03-06T14:42:32.986Z,11.07
2023-03-06T14:45:35.879Z,10.48
2023-03-06T14:48:44.416Z,10.55
2023-03-06T14:51:52.434Z,10.60
2023-03-06T14:54:55.571Z,11.15
2023-03-06T14:58:13.609Z,11.90
2023-03-06T15:01:21.763Z,12.18
2023-03-06T15:04:30.509Z,12.30
2023-03-06T15:07:34.045Z,10.00
2023-03-06T15:10:37.567Z,10.38
2023-03-06T15:13:40.554Z,12.10
2023-03-06T15:16:43.397Z,9.30
2023-03-06T15:19:54.334Z,9.88
2023-03-06T15:22:57.066Z,10.07
2023-03-06T15:26:03.705Z,10.77
2023-03-06T15:29:10.300Z,9.97
2023-03-06T15:32:25.611Z,13.48
2023-03-06T15:35:34.661Z,10.55
2023-03-06T15:38:42.801Z,7.65
2023-03-06T15:41:46.500Z,7.28
2023-03-06T15:44:53.221Z,7.30
2023-03-06T15:47:56.135Z,7.35
2023-03-06T15:50:59.020Z,10.02
2023-03-06T15:54:11.820Z,8.90
2023-03-06T15:57:35.414Z,9.48
2023-03-06T16:00:40.216Z,11.67
2023-03-06T16:03:43.604Z,14.35
2023-03-06T16:06:46.574Z,15.07
2023-03-06T16:09:49.548Z,11.50
2023-03-06T16:12:56.674Z,10.70
2023-03-06T16:15:59.612Z,11.67
2023-03-06T16:19:06.067Z,11.75
2023-03-06T16:22:10.651Z,10.02
2023-03-06T16:25:14.615Z,12.50
2023-03-06T16:28:18.100Z,12.88
2023-03-06T16:31:21.057Z,14.77
2023-03-06T16:34:24.288Z,15.00
2023-03-06T16:37:27.070Z,15.45
2023-03-06T16:40:38.062Z,13.32
2023-03-06T16:43:40.851Z,10.82
2023-03-06T16:46:46.090Z,10.17
2023-03-06T16:49:50.021Z,9.30
2023-03-06T16:52:54.702Z,8.20
2023-03-06T16:55:57.523Z,9.55
2023-03-06T16:59:00.309Z,9.55
2023-03-06T17:02:07.574Z,12.80
2023-03-06T17:05:11.806Z,19.13
2023-03-06T17:08:14.777Z,24.55
2023-03-06T17:11:20.381Z,22.13
2023-03-06T17:14:23.165Z,20.48
2023-03-06T17:17:26.048Z,17.53
2023-03-06T17:20:29.109Z,23.48
2023-03-06T17:23:32.181Z,26.20
2023-03-06T17:26:40.293Z,23.02
2023-03-06T17:29:43.590Z,18.05
2023-03-06T17:32:46.441Z,20.10
2023-03-06T17:35:50.636Z,19.42
2023-03-06T17:38:58.203Z,16.90
2023-03-06T17:42:01.459Z,14.43
2023-03-06T17:45:05.172Z,13.00
2023-03-06T17:48:08.036Z,13.40
2023-03-06T17:51:11.821Z,11.48
2023-03-06T17:54:14.703Z,13.07
2023-03-06T17:57:17.681Z,12.45
2023-03-06T18:00:21.261Z,13.15
2023-03-06T18:03:24.354Z,13.60
2023-03-06T18:06:30.259Z,8.77
2023-03-06T18:09:33.059Z,9.85
2023-03-06T18:12:36.396Z,9.43
2023-03-06T18:15:41.106Z,7.70
2023-03-06T18:18:45.026Z,6.03
2023-03-06T18:21:48.084Z,6.28
2023-03-06T18:24:52.246Z,6.78
2023-03-06T18:27:55.193Z,6.72
2023-03-06T18:30:57.988Z,6.22
2023-03-06T18:34:03.217Z,5.30
2023-03-06T18:37:06.319Z,6.35
2023-03-06T18:40:09.982Z,6.45
2023-03-06T18:43:13.027Z,6.00
2023-03-06T18:46:16.165Z,7.03
2023-03-06T18:49:20.073Z,7.70
2023-03-06T18:52:23.682Z,7.13
2023-03-06T18:55:26.716Z,9.73
2023-03-06T18:58:30.115Z,7.32
2023-03-06T19:01:34.096Z,7.95
2023-03-06T19:04:38.135Z,7.03
2023-03-06T19:07:42.208Z,7.32
2023-03-06T19:10:47.100Z,10.15
2023-03-06T19:13:50.417Z,9.73
2023-03-06T19:16:53.502Z,8.00
2023-03-06T19:19:56.938Z,7.87
2023-03-06T19:23:00.328Z,8.63
2023-03-06T19:26:03.943Z,8.40
2023-03-06T19:29:07.476Z,8.18
2023-03-06T19:32:10.666Z,8.45
2023-03-06T19:35:13.784Z,11.13
2023-03-06T19:38:16.782Z,10.02
2023-03-06T19:41:19.733Z,9.65
2023-03-06T19:44:24.546Z,10.27
2023-03-06T19:47:28.617Z,11.25
2023-03-06T19:50:31.840Z,10.57
2023-03-06T19:53:38.973Z,11.38
2023-03-06T19:56:42.428Z,11.18
2023-03-06T19:59:52.173Z,13.07
2023-03-06T20:02:55.944Z,12.32
2023-03-06T20:05:59.035Z,12.80
2023-03-06T20:09:04.712Z,12.30
2023-03-06T20:12:08.331Z,12.90
2023-03-06T20:15:11.645Z,14.32
2023-03-06T20:18:15.200Z,14.98
2023-03-06T20:21:18.261Z,14.87
2023-03-06T20:24:21.118Z,13.32
2023-03-06T20:27:24.159Z,19.17
2023-03-06T20:30:36.663Z,17.55
2023-03-06T20:33:41.117Z,18.95
2023-03-06T20:36:44.574Z,19.37
2023-03-06T20:39:47.960Z,18.95
2023-03-06T20:42:51.069Z,23.60
2023-03-06T20:45:59.398Z,21.85
2023-03-06T20:49:02.590Z,22.73
2023-03-06T20:52:05.581Z,23.67
2023-03-06T20:55:09.116Z,18.77
2023-03-06T20:58:12.036Z,16.20
2023-03-06T21:01:26.821Z,13.68
2023-03-06T21:04:29.958Z,15.05
2023-03-06T21:07:32.837Z,16.17
2023-03-06T21:10:38.084Z,14.85
2023-03-06T21:13:40.969Z,13.73
2023-03-06T21:16:44.678Z,11.75
2023-03-06T21:19:47.671Z,11.75
2023-03-06T21:22:52.077Z,10.50
2023-03-06T21:25:54.841Z,10.10
2023-03-06T21:28:59.056Z,8.10
2023-03-06T21:32:01.855Z,7.68
2023-03-06T21:35:04.977Z,7.15
2023-03-06T21:38:08.293Z,7.23
2023-03-06T21:41:16.824Z,7.57
2023-03-06T21:44:19.888Z,7.72
2023-03-06T21:47:22.647Z,10.45
2023-03-06T21:50:26.127Z,12.02
2023-03-06T21:53:28.828Z,11.93
2023-03-06T21:56:33.641Z,10.73
2023-03-06T21:59:37.880Z,9.05
2023-03-06T22:02:40.789Z,10.93
2023-03-06T22:05:44.615Z,10.82
2023-03-06T22:08:47.720Z,8.30
2023-03-06T22:11:50.478Z,8.30
2023-03-06T22:14:53.244Z,9.02
2023-03-06T22:17:55.991Z,8.68
2023-03-06T22:20:59.246Z,9.40
2023-03-06T22:24:01.974Z,8.90
2023-03-06T22:27:04.993Z,8.32
2023-03-06T22:30:08.515Z,8.55
2023-03-06T22:33:11.583Z,7.97
2023-03-06T22:36:15.828Z,7.70
2023-03-06T22:39:19.074Z,12.37
2023-03-06T22:42:21.909Z,11.80
2023-03-06T22:45:24.857Z,10.65
2023-03-06T22:48:28.034Z,12.05
2023-03-06T22:51:31.107Z,10.50
2023-03-06T22:54:33.886Z,8.87
2023-03-06T22:57:36.628Z,8.40
2023-03-06T23:00:39.449Z,9.35
2023-03-06T23:03:44.849Z,9.48
2023-03-06T23:06:47.770Z,10.82
2023-03-06T23:09:50.602Z,10.20
2023-03-06T23:13:12.147Z,9.07
2023-03-06T23:16:34.053Z,9.85
2023-03-06T23:19:55.749Z,9.45
2023-03-06T23:23:17.212Z,8.20
2023-03-06T23:26:22.390Z,8.37
2023-03-06T23:29:25.474Z,9.00
2023-03-06T23:32:28.354Z,8.90
2023-03-06T23:35:33.617Z,9.73
2023-03-06T23:38:37.230Z,10.20
2023-03-06T23:41:40.090Z,10.20
2023-03-06T23:44:42.966Z,9.45
2023-03-06T23:47:45.900Z,10.05
2023-03-06T23:50:48.825Z,10.38
2023-03-06T23:54:00.062Z,11.20
2023-03-06T23:57:02.789Z,12.23
